Steptoe Valley WMA, Nevada Weather observations

Data are for 10 minute period ending at time listed.
 Day   Time   Solar   Ave.   Ave.  Ave.  Vector  Max.   Baro.   Total    
  of    of     Rad.   Air    Rel.  Wind   Wind   Wind  Press.  Precip.   
Year   Day            Temp.  Hum.  Speed  Dir.   Gust                    
2014   (PST)  Kw/m2    F      %     mph   deg.    mph    mb.     in.     
-------------------------------------------------------------------------
 245    0:00   0.00   48.0    57    2.3   167     3.5   804.2    0.00 
 245    0:10   0.00   44.6    66    2.0   178     3.0   804.2    0.00 
 245    0:20   0.00   41.2    71    2.4   169     3.1   804.2    0.00 
 245    0:30   0.00   39.9    78    2.2   164     3.4   804.2    0.00 
 245    0:40   0.00   39.7    80    2.3   160     3.3   804.2    0.00 
 245    0:50   0.00   41.2    76    2.9   160     4.3   804.3    0.00 
 245    1:00   0.00   42.4    73    2.0   175     2.9   804.3    0.00 
 245    1:10   0.00   42.9    70    1.9   171     2.9   804.2    0.00 
 245    1:20   0.00   44.0    67    3.3   178     4.5   804.2    0.00 
 245    1:30   0.00   42.8    69    2.6   180     3.9   804.3    0.00 
 245    1:40   0.00   40.7    74    3.1   177     5.0   804.2    0.00 
 245    1:50   0.00   39.0    77    4.4   180     7.1   804.3    0.00 
 245    2:00   0.00   38.6    80    3.7   178     6.1   804.2    0.00 
 245    2:10   0.00   38.9    80    4.0   181     5.3   804.2    0.00 
 245    2:20   0.00   38.7    79    1.4   194     4.2   804.3    0.00 
 245    2:30   0.00   38.7    79    1.1   157     2.1   804.3    0.00 
 245    2:40   0.00   39.1    77    2.3   166     4.8   804.3    0.00 
 245    2:50   0.00   38.9    79    3.8   193     6.8   804.3    0.00 
 245    3:00   0.00   38.1    81    3.7   157     7.2   804.3    0.00 
 245    3:10   0.00   40.3    76    3.3   200     6.9   804.3    0.00 
 245    3:20   0.00   39.0    78    2.9   156     5.0   804.2    0.00 
 245    3:30   0.00   39.0    78    2.7   183     4.5   804.3    0.00 
 245    3:40   0.00   39.4    79    3.8   171     7.0   804.3    0.00 
 245    3:50   0.00   41.3    76    4.2   167     7.2   804.3    0.00 
 245    4:00   0.00   42.4    72    3.9   162     6.5   804.3    0.00 
 245    4:10   0.00   41.8    73    2.4   196     7.1   804.2    0.00 
 245    4:20   0.00   41.0    75    4.8   162    10.1   804.2    0.00 
 245    4:30   0.00   42.6    70    5.2   164     9.1   804.2    0.00 
 245    4:40   0.00   41.6    74    3.4   195     6.1   804.3    0.00 
 245    4:50   0.00   40.1    77    5.6   161     8.6   804.4    0.00 
 245    5:00   0.00   39.7    78    5.4   192     7.7   804.4    0.00 
 245    5:10   0.00   39.9    78    4.7   169     6.6   804.5    0.00 
 245    5:20   0.01   39.4    79    3.9   181     6.1   804.6    0.00 
 245    5:30   0.01   39.5    77    4.6   175     6.4   804.7    0.00 
 245    5:40   0.01   39.5    78    4.0   184     5.8   804.8    0.00 
 245    5:50   0.02   41.7    74    5.3   167     7.7   804.7    0.00 
 245    6:00   0.02   43.1    71    3.7   182     5.5   804.8    0.00 
 245    6:10   0.04   44.0    73    4.3   181     6.6   804.8    0.00 
 245    6:20   0.17   48.5    64    6.0   174     8.1   804.7    0.00 
 245    6:30   0.20   53.3    57    5.4   182     8.0   804.6    0.00 
 245    6:40   0.23   54.8    56    5.4   186     8.3   804.6    0.00 
 245    6:50   0.27   55.1    54    6.7   193    10.1   804.5    0.00 
 245    7:00   0.30   56.2    53    6.8   179     9.9   804.4    0.00 
 245    7:10   0.34   57.9    53    6.2   191    10.6   804.3    0.00 
 245    7:20   0.37   60.7    49    5.9   191     8.9   804.1    0.00 
 245    7:30   0.40   62.9    46    7.0   195    10.7   804.0    0.00 
 245    7:40   0.44   65.8    44    5.0   194     8.0   804.0    0.00 
 245    7:50   0.47   70.2    36    5.0   172    10.2   803.9    0.00 
 245    8:00   0.50   73.7    28    6.7   168    12.4   803.9    0.00 
 245    8:10   0.54   74.9    22    8.4   158    15.3   804.0    0.00 
 245    8:20   0.57   75.7    22    8.5   169    13.5   804.1    0.00 
 245    8:30   0.60   76.3    21    8.9   154    12.8   804.1    0.00 
 245    8:40   0.62   77.0    21    7.5   160    13.4   804.1    0.00 
 245    8:50   0.65   77.1    20    7.4   136    14.6   804.1    0.00 
 245    9:00   0.68   78.6    19    7.7   153    13.4   804.0    0.00 
 245    9:10   0.70   79.9    19    7.4   196    13.6   804.0    0.00 
 245    9:20   0.73   79.2    20    7.4   226    12.6   804.0    0.00 
 245    9:30   0.75   80.3    20    5.6   222    12.4   803.9    0.00 
 245    9:40   0.77   80.3    20    7.4   224    13.2   803.9    0.00 
 245    9:50   0.79   80.0    20    9.1   206    16.3   803.8    0.00 
 245   10:00   0.81   80.3    19    8.9   208    15.7   803.7    0.00 
 245   10:10   0.83   80.3    19    9.9   214    17.9   803.7    0.00 
 245   10:20   0.84   80.3    18    9.3   220    15.3   803.6    0.00 
 245   10:30   0.86   80.2    18    9.9   229    14.9   803.6    0.00 
 245   10:40   0.87   80.5    18   10.6   217    17.0   803.5    0.00 
 245   10:50   0.88   80.9    18    9.1   211    15.4   803.4    0.00 
 245   11:00   0.89   81.8    19    9.2   209    14.6   803.3    0.00 
 245   11:10   0.89   82.3    16    4.8   216    10.7   803.2    0.00 
 245   11:20   0.90   82.8    14    4.6   210     9.3   803.1    0.00 
 245   11:30   0.90   83.9    14    2.3   208     5.8   803.0    0.00 
 245   11:40   0.90   83.7    15    6.3   156    11.1   802.8    0.00 
 245   11:50   0.89   83.0    17    7.8   214    16.1   802.8    0.00 
 245   12:00   0.90   82.8    18    8.5   190    14.4   802.7    0.00 
 245   12:10   0.90   82.9    16    9.0   179    13.3   802.7    0.00 
 245   12:20   0.89   82.9    15    4.3   233    10.7   802.6    0.00 
 245   12:30   0.88   83.4    15    5.6   243    14.8   802.5    0.00 
 245   12:40   0.88   83.4    16    9.4   236    22.4   802.5    0.00 
 245   12:50   0.86   83.6    15    6.0   222    13.5   802.4    0.00 
 245   13:00   0.85   83.5    16    9.1   217    16.5   802.3    0.00 
 245   13:10   0.84   83.4    16    6.7   228    13.3   802.3    0.00 
 245   13:20   0.81   83.8    15    5.3   230    12.9   802.1    0.00 
 245   13:30   0.80   84.0    16    8.4   190    14.9   802.0    0.00 
 245   13:40   0.78   84.3    16    5.7   201    11.2   801.9    0.00 
 245   13:50   0.77   84.4    15    6.3   226    11.2   801.7    0.00 
 245   14:00   0.75   83.6    16    9.7   256    18.0   801.6    0.00 
 245   14:10   0.72   83.3    16    8.3   255    15.3   801.5    0.00 
 245   14:20   0.70   84.6    15    4.7   233    13.1   801.3    0.00 
 245   14:30   0.67   84.0    17    6.9   224    13.4   801.2    0.00 
 245   14:40   0.65   84.4    16    5.1   225    12.3   801.0    0.00 
 245   14:50   0.61   84.6    16    4.4   258     7.5   800.9    0.00 
 245   15:00   0.59   84.5    16    6.7   200    13.1   800.7    0.00 
 245   15:10   0.56   83.6    17    9.4   243    15.6   800.7    0.00 
 245   15:20   0.35   82.1    17    9.3   217    17.8   800.7    0.00 
 245   15:30   0.49   82.3    16    4.8   211    13.2   800.6    0.00 
 245   15:40   0.48   84.4    17    3.8   193     7.6   800.5    0.00 
 245   15:50   0.44   84.5    15    5.8   221    12.1   800.3    0.00 
 245   16:00   0.41   83.4    17    5.7   252    10.7   800.3    0.00 
 245   16:10   0.37   83.0    19    5.6   209    11.1   800.3    0.00 
 245   16:20   0.33   82.7    15    6.2   239    12.1   800.3    0.00 
 245   16:30   0.30   82.0    17    6.1   236    12.9   800.3    0.00 
 245   16:40   0.27   81.7    16    5.0   230     9.3   800.3    0.00 
 245   16:50   0.23   82.0    19    3.3   226     7.7   800.2    0.00 
 245   17:00   0.20   81.3    18    4.6   241    13.3   800.2    0.00 
 245   17:10   0.16   80.7    15    5.1   224    11.5   800.1    0.00 
 245   17:20   0.10   78.9    16    5.2   214    10.1   800.1    0.00 
 245   17:30   0.10   77.6    20    3.0   199     7.2   800.0    0.00 
 245   17:40   0.08   75.5    21    5.0   205    11.4   800.0    0.00 
 245   17:50   0.05   75.1    20    5.3   210    10.5   800.0    0.00 
 245   18:00   0.02   74.9    20    3.1   205     8.1   800.1    0.00 
 245   18:10   0.01   72.5    20    3.8   154     5.5   800.0    0.00 
 245   18:20   0.00   70.7    22    3.4   166     5.1   800.0    0.00 
 245   18:30   0.00   69.0    23    5.2   178     9.5   799.9    0.00 
 245   18:40   0.00   68.6    22    5.0   158     6.6   799.9    0.00 
 245   18:50   0.00   67.8    24    6.1   166     9.0   799.9    0.00 
 245   19:00   0.00   66.2    28    6.3   172     8.6   800.0    0.00 
 245   19:10   0.00   65.9    28    5.0   166     6.6   800.2    0.00 
 245   19:20   0.00   67.0    26    4.8   163     7.0   800.2    0.00 
 245   19:30   0.00   69.2    23    8.5   140    13.7   800.2    0.00 
 245   19:40   0.00   68.5    23    8.7   131    11.8   800.2    0.00 
 245   19:50   0.00   68.0    24    9.8   126    15.4   800.2    0.00 
 245   20:00   0.00   67.7    24    9.8   130    13.6   800.2    0.00 
 245   20:10   0.00   67.0    25    9.1   127    12.3   800.4    0.00 
 245   20:20   0.00   66.9    25    9.6   124    12.9   800.3    0.00 
 245   20:30   0.00   66.6    25    9.6   129    13.6   800.2    0.00 
 245   20:40   0.00   66.4    25   10.7   127    13.9   800.2    0.00 
 245   20:50   0.00   66.1    25   10.9   132    15.4   800.2    0.00 
 245   21:00   0.00   65.9    25   10.8   135    15.5   800.1    0.00 
 245   21:10   0.00   65.5    25   10.7   130    15.5   800.2    0.00 
 245   21:20   0.00   65.5    25   10.8   127    15.9   800.1    0.00 
 245   21:30   0.00   65.7    24   11.6   122    15.5   800.1    0.00 
 245   21:40   0.00   65.9    24   10.7   125    15.8   800.1    0.00 
 245   21:50   0.00   66.6    22    8.4   157    13.1   800.3    0.00 

Return to Steptoe Valley WMA graphs page.


Western Regional Climate Center,wrcc@dri.edu